createdAt,value
2022-11-29T00:01:53.700Z,60.79
2022-11-29T00:04:22.201Z,60.48
2022-11-29T00:06:50.616Z,60.68
2022-11-29T00:09:20.472Z,61.56
2022-11-29T00:12:06.360Z,60.06
2022-11-29T00:14:34.841Z,62.57
2022-11-29T00:17:04.486Z,62.02
2022-11-29T00:19:33.578Z,60.21
2022-11-29T00:22:02.386Z,60.09
2022-11-29T00:24:33.085Z,59.95
2022-11-29T00:27:01.857Z,59.36
2022-11-29T00:29:31.360Z,59.31
2022-11-29T00:31:59.878Z,59.83
2022-11-29T00:34:28.247Z,60.77
2022-11-29T00:36:56.355Z,59.70
2022-11-29T00:39:24.751Z,59.58
2022-11-29T00:41:54.267Z,59.56
2022-11-29T00:44:22.726Z,58.86
2022-11-29T00:46:50.832Z,59.05
2022-11-29T00:49:19.302Z,58.86
2022-11-29T00:51:48.237Z,59.26
2022-11-29T00:54:18.354Z,60.50
2022-11-29T00:56:47.037Z,59.32
2022-11-29T00:59:16.897Z,59.86
2022-11-29T01:01:45.559Z,60.24
2022-11-29T01:04:14.037Z,60.06
2022-11-29T01:06:42.254Z,60.67
2022-11-29T01:09:10.857Z,59.96
2022-11-29T01:11:38.964Z,59.46
2022-11-29T01:14:07.369Z,59.09
2022-11-29T01:16:37.162Z,59.82
2022-11-29T01:19:07.412Z,60.18
2022-11-29T01:21:36.023Z,59.67
2022-11-29T01:24:04.265Z,59.66
2022-11-29T01:26:33.093Z,59.27
2022-11-29T01:29:01.786Z,59.52
2022-11-29T01:31:32.025Z,59.88
2022-11-29T01:34:03.726Z,59.44
2022-11-29T01:36:32.478Z,59.57
2022-11-29T01:39:01.770Z,59.62
2022-11-29T01:41:32.544Z,59.06
2022-11-29T01:44:03.608Z,58.67
2022-11-29T01:46:33.961Z,58.87
2022-11-29T01:49:08.320Z,59.39
2022-11-29T01:51:38.828Z,58.69
2022-11-29T01:54:09.543Z,58.61
2022-11-29T01:56:40.196Z,59.20
2022-11-29T01:59:12.703Z,59.78
2022-11-29T02:01:41.298Z,59.64
2022-11-29T02:04:11.174Z,59.98
2022-11-29T02:06:41.055Z,58.58
2022-11-29T02:09:19.819Z,60.41
2022-11-29T02:12:09.202Z,60.27
2022-11-29T02:14:52.702Z,59.66
2022-11-29T02:17:31.852Z,60.04
2022-11-29T02:21:11.934Z,60.54
2022-11-29T02:24:27.911Z,58.67
2022-11-29T02:27:17.116Z,58.26
2022-11-29T02:30:24.285Z,59.94
2022-11-29T02:33:14.774Z,59.80
2022-11-29T02:36:13.984Z,58.61
2022-11-29T02:39:03.466Z,57.78
2022-11-29T02:41:47.642Z,58.67
2022-11-29T02:44:33.629Z,58.55
2022-11-29T02:47:12.826Z,57.28
2022-11-29T02:50:10.448Z,57.02
2022-11-29T02:52:48.006Z,57.13
2022-11-29T02:55:24.145Z,56.77
2022-11-29T02:58:00.166Z,56.78
2022-11-29T03:00:29.481Z,58.89
2022-11-29T03:03:05.946Z,58.42
2022-11-29T03:05:44.859Z,57.05
2022-11-29T03:08:21.747Z,56.61
2022-11-29T03:11:00.508Z,56.21
2022-11-29T03:13:44.701Z,58.74
2022-11-29T03:16:24.581Z,59.54
2022-11-29T03:19:05.700Z,60.28
2022-11-29T03:21:45.529Z,58.87
2022-11-29T03:24:19.899Z,57.12
2022-11-29T03:26:52.869Z,58.38
2022-11-29T03:29:30.729Z,59.07
2022-11-29T03:32:06.277Z,59.25
2022-11-29T03:34:47.135Z,57.38
2022-11-29T03:37:20.794Z,56.74
2022-11-29T03:39:53.345Z,57.16
2022-11-29T03:42:27.474Z,56.99
2022-11-29T03:45:04.452Z,57.04
2022-11-29T03:47:38.052Z,58.63
2022-11-29T03:50:12.768Z,57.17
2022-11-29T03:52:50.900Z,56.68
2022-11-29T03:55:33.242Z,58.05
2022-11-29T03:58:25.899Z,57.17
2022-11-29T04:01:23.496Z,56.35
2022-11-29T04:04:13.982Z,56.18
2022-11-29T04:06:59.734Z,56.32
2022-11-29T04:09:43.575Z,56.03
2022-11-29T04:12:47.582Z,56.68
2022-11-29T04:15:52.234Z,55.88
2022-11-29T04:18:59.932Z,56.82
2022-11-29T04:21:48.657Z,56.30
2022-11-29T04:24:48.164Z,57.34
2022-11-29T04:27:31.471Z,55.89
2022-11-29T04:30:11.799Z,57.01
2022-11-29T04:33:10.304Z,55.98
2022-11-29T04:36:10.448Z,55.32
2022-11-29T04:39:12.806Z,55.25
2022-11-29T04:42:21.390Z,55.82
2022-11-29T04:45:13.435Z,56.58
2022-11-29T04:47:56.770Z,56.91
2022-11-29T04:50:39.792Z,56.41
2022-11-29T04:53:40.609Z,55.47
2022-11-29T04:56:19.179Z,56.41
2022-11-29T04:58:54.856Z,58.33
2022-11-29T05:01:32.068Z,56.97
2022-11-29T05:04:06.371Z,56.65
2022-11-29T05:06:42.033Z,57.10
2022-11-29T05:09:19.971Z,56.44
2022-11-29T05:12:00.861Z,55.34
2022-11-29T05:14:42.037Z,56.46
2022-11-29T05:17:31.720Z,56.00
2022-11-29T05:20:18.157Z,56.51
2022-11-29T05:22:55.400Z,56.25
2022-11-29T05:25:37.128Z,55.87
2022-11-29T05:28:14.015Z,56.33
2022-11-29T05:31:08.623Z,56.85
2022-11-29T05:34:00.340Z,57.09
2022-11-29T05:36:40.399Z,57.33
2022-11-29T05:39:36.074Z,56.58
2022-11-29T05:42:37.220Z,56.52
2022-11-29T05:45:14.469Z,56.99
2022-11-29T05:48:03.729Z,56.43
2022-11-29T05:50:38.795Z,55.95
2022-11-29T05:53:22.411Z,55.74
2022-11-29T05:56:00.645Z,55.59
2022-11-29T05:58:30.989Z,55.35
2022-11-29T06:01:08.093Z,55.14
2022-11-29T06:03:45.253Z,55.37
2022-11-29T06:06:20.535Z,55.43
2022-11-29T06:08:56.210Z,56.18
2022-11-29T06:11:29.765Z,55.77
2022-11-29T06:14:08.000Z,56.52
2022-11-29T06:16:47.859Z,56.51
2022-11-29T06:19:53.216Z,55.42
2022-11-29T06:22:51.664Z,55.25
2022-11-29T06:25:39.469Z,54.75
2022-11-29T06:28:26.664Z,55.81
2022-11-29T06:31:02.260Z,55.06
2022-11-29T06:33:39.361Z,55.19
2022-11-29T06:36:20.155Z,55.67
2022-11-29T06:38:49.232Z,55.50
2022-11-29T06:41:21.532Z,53.82
2022-11-29T06:43:50.885Z,53.63
2022-11-29T06:46:33.090Z,54.93
2022-11-29T06:49:10.133Z,54.31
2022-11-29T06:51:52.543Z,54.68
2022-11-29T06:54:38.008Z,54.22
2022-11-29T06:57:12.784Z,52.37
2022-11-29T06:59:56.882Z,53.72
2022-11-29T07:02:39.568Z,53.56
2022-11-29T07:05:16.631Z,54.04
2022-11-29T07:07:48.581Z,54.11
2022-11-29T07:10:19.351Z,53.67
2022-11-29T07:12:50.616Z,54.59
2022-11-29T07:15:21.502Z,53.67
2022-11-29T07:18:10.050Z,53.15
2022-11-29T07:20:48.278Z,52.91
2022-11-29T07:23:25.420Z,54.50
2022-11-29T07:26:06.040Z,53.42
2022-11-29T07:28:50.039Z,54.46
2022-11-29T07:31:29.112Z,54.39
2022-11-29T07:34:05.065Z,53.60
2022-11-29T07:36:45.799Z,52.53
2022-11-29T07:39:26.357Z,52.74
2022-11-29T07:42:02.050Z,52.83
2022-11-29T07:44:41.175Z,51.75
2022-11-29T07:47:10.409Z,50.82
2022-11-29T07:49:38.790Z,51.63
2022-11-29T07:52:07.404Z,51.96
2022-11-29T07:54:37.351Z,51.74
2022-11-29T07:57:08.167Z,51.64
2022-11-29T07:59:36.667Z,51.62
2022-11-29T08:02:11.318Z,51.32
2022-11-29T08:04:44.391Z,51.88
2022-11-29T08:07:16.429Z,52.34
2022-11-29T08:09:46.669Z,51.61
2022-11-29T08:12:15.184Z,51.76
2022-11-29T08:14:43.793Z,51.73
2022-11-29T08:17:12.572Z,51.59
2022-11-29T08:19:40.940Z,51.80
2022-11-29T08:22:09.053Z,50.97
2022-11-29T08:24:37.422Z,49.95
2022-11-29T08:27:07.194Z,50.29
2022-11-29T08:29:35.629Z,49.45
2022-11-29T08:32:04.031Z,50.97
2022-11-29T08:34:32.630Z,50.24
2022-11-29T08:37:00.807Z,49.80
2022-11-29T08:39:28.877Z,49.54
2022-11-29T08:41:57.280Z,49.66
2022-11-29T08:44:26.895Z,48.20
2022-11-29T08:47:12.838Z,50.46
2022-11-29T08:50:01.326Z,50.28
2022-11-29T08:52:52.485Z,50.30
2022-11-29T08:55:27.526Z,52.75
2022-11-29T08:58:01.366Z,50.22
2022-11-29T09:00:31.350Z,50.00
2022-11-29T09:03:19.868Z,49.92
2022-11-29T09:05:54.905Z,51.99
2022-11-29T09:08:23.507Z,51.23
2022-11-29T09:10:52.202Z,50.56
2022-11-29T09:13:20.911Z,48.37
2022-11-29T09:15:50.577Z,49.44
2022-11-29T09:18:19.310Z,47.71
2022-11-29T09:20:47.759Z,49.09
2022-11-29T09:23:20.027Z,50.22
2022-11-29T09:25:49.970Z,49.26
2022-11-29T09:28:18.633Z,50.97
2022-11-29T09:30:47.166Z,50.18
2022-11-29T09:33:17.149Z,48.83
2022-11-29T09:35:45.788Z,48.73
2022-11-29T09:38:14.463Z,48.45
2022-11-29T09:40:49.856Z,48.69
2022-11-29T09:43:28.007Z,47.44
2022-11-29T09:46:18.174Z,47.11
2022-11-29T09:49:06.506Z,53.21
2022-11-29T09:51:43.953Z,53.54
2022-11-29T09:54:33.308Z,52.95
2022-11-29T09:57:10.657Z,50.63
2022-11-29T09:59:43.572Z,49.25
2022-11-29T10:02:21.696Z,48.54
2022-11-29T10:04:56.237Z,48.85
2022-11-29T10:07:34.305Z,49.76
2022-11-29T10:10:05.899Z,49.94
2022-11-29T10:12:40.352Z,50.01
2022-11-29T10:15:17.075Z,49.88
2022-11-29T10:17:52.526Z,48.82
2022-11-29T10:20:25.747Z,49.23
2022-11-29T10:22:58.771Z,49.94
2022-11-29T10:25:32.959Z,50.84
2022-11-29T10:28:01.942Z,49.96
2022-11-29T10:30:32.508Z,51.99
2022-11-29T10:33:02.785Z,49.75
2022-11-29T10:35:34.610Z,49.43
2022-11-29T10:38:29.812Z,49.27
2022-11-29T10:41:00.519Z,48.87
2022-11-29T10:43:29.254Z,49.92
2022-11-29T10:45:59.202Z,52.72
2022-11-29T10:48:32.704Z,54.13
2022-11-29T10:51:03.599Z,52.69
2022-11-29T10:53:37.358Z,50.54
2022-11-29T10:56:09.735Z,54.49
2022-11-29T10:58:53.950Z,53.78
2022-11-29T11:01:22.936Z,52.56
2022-11-29T11:03:53.596Z,53.09
2022-11-29T11:06:25.996Z,53.30
2022-11-29T11:08:56.076Z,52.78
2022-11-29T11:11:28.359Z,51.88
2022-11-29T11:14:02.947Z,54.23
2022-11-29T11:16:37.127Z,52.39
2022-11-29T11:19:30.931Z,51.11
2022-11-29T11:22:03.087Z,50.84
2022-11-29T11:24:33.557Z,51.18
2022-11-29T11:27:02.836Z,50.42
2022-11-29T11:29:38.993Z,50.23
2022-11-29T11:32:17.188Z,50.00
2022-11-29T11:34:53.314Z,52.09
2022-11-29T11:37:26.682Z,51.76
2022-11-29T11:39:57.820Z,51.38
2022-11-29T11:42:40.606Z,51.21
2022-11-29T11:45:28.589Z,51.18
2022-11-29T11:48:00.660Z,50.71
2022-11-29T11:50:35.077Z,51.35
2022-11-29T11:53:09.920Z,51.85
2022-11-29T11:55:40.932Z,53.42
2022-11-29T11:58:18.830Z,52.64
2022-11-29T12:01:06.023Z,52.15
2022-11-29T12:03:44.772Z,51.93
2022-11-29T12:06:26.561Z,51.79
2022-11-29T12:09:02.132Z,51.47
2022-11-29T12:11:35.181Z,53.88
2022-11-29T12:14:06.421Z,53.82
2022-11-29T12:16:40.362Z,52.18
2022-11-29T12:19:16.793Z,52.47
2022-11-29T12:21:49.004Z,52.97
2022-11-29T12:24:24.844Z,53.18
2022-11-29T12:26:58.313Z,52.59
2022-11-29T12:29:30.999Z,53.24
2022-11-29T12:32:12.820Z,53.08
2022-11-29T12:35:04.304Z,53.32
2022-11-29T12:37:41.466Z,53.74
2022-11-29T12:40:21.053Z,53.36
2022-11-29T12:42:58.621Z,53.14
2022-11-29T12:45:38.548Z,53.58
2022-11-29T12:48:18.968Z,54.33
2022-11-29T12:50:57.060Z,53.39
2022-11-29T12:53:52.761Z,53.96
2022-11-29T12:56:28.275Z,53.11
2022-11-29T12:59:13.738Z,53.48
2022-11-29T13:02:00.516Z,54.23
2022-11-29T13:04:38.388Z,53.80
2022-11-29T13:07:15.360Z,53.89
2022-11-29T13:10:11.453Z,53.52
2022-11-29T13:12:49.351Z,54.01
2022-11-29T13:15:20.602Z,53.99
2022-11-29T13:17:58.870Z,53.74
2022-11-29T13:20:32.230Z,53.73
2022-11-29T13:23:10.135Z,53.91
2022-11-29T13:25:42.879Z,54.01
2022-11-29T13:28:24.365Z,54.15
2022-11-29T13:30:54.085Z,53.51
2022-11-29T13:33:29.987Z,53.95
2022-11-29T13:36:01.974Z,53.41
2022-11-29T13:38:38.305Z,53.78
2022-11-29T13:41:18.206Z,53.83
2022-11-29T13:43:59.969Z,53.90
2022-11-29T13:46:56.517Z,54.03
2022-11-29T13:49:56.293Z,53.77
2022-11-29T13:52:41.297Z,54.16
2022-11-29T13:55:29.341Z,54.16
2022-11-29T13:58:19.119Z,53.88
2022-11-29T14:00:53.219Z,54.06
2022-11-29T14:03:34.826Z,53.92
2022-11-29T14:06:18.457Z,54.14
2022-11-29T14:09:22.756Z,54.57
2022-11-29T14:11:59.129Z,54.77
2022-11-29T14:14:31.425Z,55.00
2022-11-29T14:17:03.241Z,54.72
2022-11-29T14:19:34.031Z,54.96
2022-11-29T14:22:31.318Z,55.69
2022-11-29T14:25:49.811Z,55.04
2022-11-29T14:28:36.002Z,55.37
2022-11-29T14:31:05.476Z,54.95
2022-11-29T14:34:03.024Z,55.10
2022-11-29T14:36:47.045Z,55.29
2022-11-29T14:39:32.185Z,55.10
2022-11-29T14:42:14.858Z,55.79
2022-11-29T14:44:51.055Z,55.28
2022-11-29T14:47:29.024Z,54.87
2022-11-29T14:50:01.525Z,55.24
2022-11-29T14:52:34.793Z,55.92
2022-11-29T14:55:09.881Z,55.20
2022-11-29T14:58:06.124Z,55.77
2022-11-29T15:00:57.146Z,55.99
2022-11-29T15:03:33.065Z,55.29
2022-11-29T15:06:13.682Z,55.20
2022-11-29T15:08:50.271Z,56.12
2022-11-29T15:11:28.515Z,55.97
2022-11-29T15:14:03.576Z,56.00
2022-11-29T15:16:52.466Z,56.11
2022-11-29T15:19:57.298Z,56.21
2022-11-29T15:22:30.060Z,56.09
2022-11-29T15:25:02.511Z,56.23
2022-11-29T15:27:34.188Z,56.08
2022-11-29T15:30:20.468Z,55.92
2022-11-29T15:32:49.300Z,55.46
2022-11-29T15:35:20.356Z,56.13
2022-11-29T15:37:50.987Z,56.07
2022-11-29T15:40:22.052Z,55.84
2022-11-29T15:42:54.010Z,55.86
2022-11-29T15:45:32.596Z,55.63
2022-11-29T15:48:17.695Z,55.67
2022-11-29T15:50:51.268Z,56.41
2022-11-29T15:53:25.961Z,55.89
2022-11-29T15:55:57.413Z,55.67
2022-11-29T15:58:30.346Z,55.41
2022-11-29T16:01:00.895Z,55.76
2022-11-29T16:03:33.145Z,56.04
2022-11-29T16:06:16.591Z,55.62
2022-11-29T16:08:46.708Z,55.38
2022-11-29T16:11:18.613Z,55.37
2022-11-29T16:14:04.182Z,55.64
2022-11-29T16:16:35.690Z,55.63
2022-11-29T16:19:18.886Z,55.79
2022-11-29T16:22:00.972Z,55.80
2022-11-29T16:24:35.060Z,56.56
2022-11-29T16:27:07.356Z,56.77
2022-11-29T16:29:38.642Z,56.00
2022-11-29T16:32:23.126Z,56.32
2022-11-29T16:34:51.886Z,56.15
2022-11-29T16:37:23.736Z,56.36
2022-11-29T16:39:56.726Z,56.05
2022-11-29T16:42:28.131Z,56.24
2022-11-29T16:45:34.952Z,56.54
2022-11-29T16:48:15.388Z,56.49
2022-11-29T16:50:43.860Z,55.96
2022-11-29T16:53:34.301Z,56.21
2022-11-29T16:56:04.578Z,55.96
2022-11-29T16:58:37.546Z,56.17
2022-11-29T17:01:31.303Z,56.47
2022-11-29T17:04:09.627Z,56.25
2022-11-29T17:07:07.578Z,55.88
2022-11-29T17:09:40.452Z,55.41
2022-11-29T17:12:17.562Z,54.98
2022-11-29T17:14:48.998Z,54.97
2022-11-29T17:17:19.131Z,55.44
2022-11-29T17:19:52.805Z,55.56
2022-11-29T17:22:23.772Z,55.50
2022-11-29T17:24:54.579Z,55.37
2022-11-29T17:27:24.805Z,55.14
2022-11-29T17:29:53.452Z,55.57
2022-11-29T17:32:26.531Z,55.50
2022-11-29T17:34:55.689Z,56.06
2022-11-29T17:37:24.235Z,56.71
2022-11-29T17:39:52.691Z,56.97
2022-11-29T17:42:21.238Z,57.75
2022-11-29T17:44:51.360Z,57.52
2022-11-29T17:47:22.698Z,57.55
2022-11-29T17:49:51.299Z,57.13
2022-11-29T17:52:19.917Z,57.15
2022-11-29T17:54:52.139Z,56.93
2022-11-29T17:57:20.707Z,56.28
2022-11-29T17:59:53.153Z,57.13
2022-11-29T18:02:42.256Z,56.63
2022-11-29T18:05:11.104Z,55.98
2022-11-29T18:07:58.206Z,56.10
2022-11-29T18:10:27.716Z,55.49
2022-11-29T18:12:56.393Z,55.94
2022-11-29T18:15:26.332Z,56.71
2022-11-29T18:17:54.933Z,57.42
2022-11-29T18:20:23.440Z,57.66
2022-11-29T18:22:53.416Z,58.16
2022-11-29T18:25:39.211Z,58.92
2022-11-29T18:28:11.360Z,58.88
2022-11-29T18:30:41.527Z,58.16
2022-11-29T18:33:09.974Z,58.06
2022-11-29T18:35:38.401Z,58.65
2022-11-29T18:38:15.261Z,58.85
2022-11-29T18:40:47.468Z,59.93
2022-11-29T18:43:17.989Z,58.83
2022-11-29T18:45:47.940Z,58.29
2022-11-29T18:48:16.699Z,57.05
2022-11-29T18:50:45.319Z,55.76
2022-11-29T18:53:17.049Z,55.53
2022-11-29T18:55:46.251Z,56.13
2022-11-29T18:58:15.041Z,56.59
2022-11-29T19:00:44.632Z,56.41
2022-11-29T19:03:14.547Z,56.46
2022-11-29T19:05:52.597Z,56.26
2022-11-29T19:08:25.661Z,55.36
2022-11-29T19:10:54.461Z,56.11
2022-11-29T19:13:23.980Z,55.97
2022-11-29T19:15:56.600Z,56.54
2022-11-29T19:18:26.703Z,56.36
2022-11-29T19:20:55.834Z,58.23
2022-11-29T19:23:53.534Z,58.18
2022-11-29T19:26:22.300Z,57.58
2022-11-29T19:28:51.510Z,56.85
2022-11-29T19:31:33.663Z,56.97
2022-11-29T19:34:09.653Z,56.77
2022-11-29T19:36:43.683Z,56.77
2022-11-29T19:39:24.690Z,56.88
2022-11-29T19:41:53.264Z,56.90
2022-11-29T19:44:25.234Z,56.28
2022-11-29T19:46:57.848Z,56.51
2022-11-29T19:49:30.138Z,56.29
2022-11-29T19:51:58.764Z,55.90
2022-11-29T19:54:30.250Z,56.19
2022-11-29T19:57:00.531Z,56.72
2022-11-29T19:59:29.287Z,56.34
2022-11-29T20:01:58.764Z,55.57
2022-11-29T20:04:28.675Z,55.27
2022-11-29T20:06:58.173Z,55.68
2022-11-29T20:09:29.280Z,55.59
2022-11-29T20:11:57.972Z,54.54
2022-11-29T20:14:26.723Z,54.49
2022-11-29T20:16:56.661Z,54.56
2022-11-29T20:19:26.924Z,53.70
2022-11-29T20:21:56.891Z,53.95
2022-11-29T20:24:25.375Z,53.81
2022-11-29T20:26:53.899Z,54.01
2022-11-29T20:29:27.210Z,54.24
2022-11-29T20:31:55.844Z,54.91
2022-11-29T20:34:24.510Z,55.71
2022-11-29T20:37:17.654Z,55.53
2022-11-29T20:39:50.754Z,57.21
2022-11-29T20:42:47.049Z,58.46
2022-11-29T20:45:18.208Z,57.87
2022-11-29T20:47:52.384Z,58.05
2022-11-29T20:50:23.787Z,57.79
2022-11-29T20:53:06.686Z,56.89
2022-11-29T20:55:37.950Z,55.90
2022-11-29T20:58:07.009Z,55.72
2022-11-29T21:00:36.340Z,54.77
2022-11-29T21:03:04.897Z,54.59
2022-11-29T21:05:33.305Z,53.75
2022-11-29T21:08:03.165Z,53.45
2022-11-29T21:10:31.636Z,53.06
2022-11-29T21:13:00.642Z,53.37
2022-11-29T21:15:32.472Z,53.94
2022-11-29T21:18:02.608Z,53.24
2022-11-29T21:20:31.983Z,53.55
2022-11-29T21:23:07.623Z,53.42
2022-11-29T21:25:45.939Z,54.20
2022-11-29T21:28:16.387Z,54.30
2022-11-29T21:30:45.631Z,54.77
2022-11-29T21:33:14.535Z,54.33
2022-11-29T21:35:43.142Z,54.21
2022-11-29T21:38:21.441Z,54.82
2022-11-29T21:40:52.977Z,55.62
2022-11-29T21:43:32.747Z,55.71
2022-11-29T21:46:09.972Z,55.59
2022-11-29T21:48:38.986Z,56.34
2022-11-29T21:51:09.451Z,55.36
2022-11-29T21:53:40.838Z,55.65
2022-11-29T21:56:11.710Z,55.57
2022-11-29T21:58:40.729Z,55.44
2022-11-29T22:01:11.194Z,54.99
2022-11-29T22:03:40.895Z,55.21
2022-11-29T22:06:12.460Z,54.91
2022-11-29T22:08:43.871Z,54.65
2022-11-29T22:11:14.603Z,54.43
2022-11-29T22:13:58.894Z,54.53
2022-11-29T22:16:27.527Z,54.38
2022-11-29T22:18:56.151Z,54.68
2022-11-29T22:21:25.371Z,54.64
2022-11-29T22:23:55.322Z,54.89
2022-11-29T22:26:23.878Z,55.00
2022-11-29T22:28:52.419Z,54.65
2022-11-29T22:31:20.831Z,54.88
2022-11-29T22:33:49.245Z,54.92
2022-11-29T22:36:17.645Z,56.25
2022-11-29T22:38:48.613Z,55.19
2022-11-29T22:41:21.023Z,54.67
2022-11-29T22:43:49.666Z,53.54
2022-11-29T22:46:20.247Z,53.85
2022-11-29T22:48:50.948Z,53.83
2022-11-29T22:51:22.721Z,53.46
2022-11-29T22:53:53.791Z,54.20
2022-11-29T22:56:24.841Z,54.15
2022-11-29T22:58:53.390Z,54.48
2022-11-29T23:01:23.375Z,54.34
2022-11-29T23:03:53.996Z,55.10
2022-11-29T23:06:24.712Z,56.52
2022-11-29T23:08:54.735Z,56.48
2022-11-29T23:11:26.264Z,56.18
2022-11-29T23:13:55.672Z,54.93
2022-11-29T23:16:26.225Z,54.26
2022-11-29T23:18:55.427Z,53.85
2022-11-29T23:21:25.892Z,53.72
2022-11-29T23:23:56.795Z,52.91
2022-11-29T23:26:28.383Z,52.42
2022-11-29T23:28:57.560Z,52.52
2022-11-29T23:31:26.488Z,53.46
2022-11-29T23:33:55.168Z,53.27
2022-11-29T23:36:23.879Z,54.00
2022-11-29T23:38:52.442Z,53.08
2022-11-29T23:41:20.848Z,53.35
2022-11-29T23:43:50.715Z,53.13
2022-11-29T23:46:21.157Z,52.90
2022-11-29T23:48:50.015Z,52.85
2022-11-29T23:51:19.391Z,52.74
2022-11-29T23:53:51.726Z,53.17
2022-11-29T23:56:20.996Z,52.82
2022-11-29T23:58:51.283Z,52.51
